Home   Weather   Mali i Gjalicës   Past weeks
Flag for Albania

Past Weather in Mali i Gjalicës, Albania — Yesterday and Last 2 Weeks

Currently: 72 °F. Sunny. (Weather station: Tirana Airport, Albania). See more current weather

Past Weather in Mali i Gjalicës — Graph

°F

Mali i Gjalicës Temperature Yesterday

Maximum temperature yesterday: 73 °F (at 1:20 pm)
Minimum temperature yesterday: 46 °F (at 4:50 am)
Average temperature yesterday: 58 °F

High & Low Weather Summary for the Past Weeks

 TemperatureHumidityPressure
High75 °F (Oct 15, 11:20 am)100% (Oct 19, 6:20 am)30.27 "Hg (Oct 19, 6:20 am)
Low41 °F (Oct 21, 6:50 am)31% (Oct 21, 12:50 pm)29.83 "Hg (Oct 15, 8:20 pm)
Average58 °F77%30.05 "Hg
* Reported Oct 14 12:20 pm — Oct 29 11:50 am, Mali i Gjalicës. Weather by CustomWeather, © 2020

Note: Actual official high and low records may vary slightly from our data, if they occured in-between our weather recording intervals... More about our weather records

Mali i Gjalicës Weather History for the Previous 24 Hours

Scroll right to see more
 ConditionsComfort  
Time TempWeatherWind HumidityBarometerVisibility
11:50 am
Thu, Oct 29
70 °FSunny.3 mph53%30.01 "Hg10 mi
11:20 am70 °FSunny.2 mph50%30.04 "Hg10 mi
10:50 am70 °FSunny.2 mph53%30.04 "Hg10 mi
10:20 am70 °FSunny.2 mph53%30.04 "Hg10 mi
9:50 am68 °FSunny.No wind53%30.04 "Hg10 mi
9:20 am63 °FSunny.2 mph64%30.04 "Hg10 mi
8:50 am59 °FSunny.2 mph68%30.01 "Hg10 mi
8:20 am57 °FSunny.2 mph77%30.01 "Hg10 mi
7:50 am54 °FSunny.2 mph82%30.01 "Hg10 mi
7:20 am50 °FSunny.2 mph88%30.01 "Hg10 mi
6:50 am46 °FSunny.3 mph93%30.01 "Hg10 mi
6:20 am46 °FSunny.3 mph87%29.98 "Hg10 mi
5:50 am45 °FClear.3 mph93%29.98 "Hg10 mi
5:20 am46 °FClear.No wind93%29.98 "Hg10 mi
4:50 am46 °FClear.1 mph87%29.98 "Hg10 mi
4:20 am48 °FClear.3 mph87%29.95 "Hg10 mi
3:50 am48 °FClear.No wind94%29.95 "Hg10 mi
3:20 am48 °FClear.1 mph87%29.95 "Hg10 mi
2:50 am48 °FClear.2 mph94%29.95 "Hg10 mi
2:20 am48 °FClear.2 mph94%29.95 "Hg10 mi
1:50 am50 °FClear.3 mph94%29.95 "Hg10 mi
1:20 am48 °FClear.5 mph94%29.95 "Hg10 mi
12:50 am50 °FClear.2 mph94%29.95 "Hg4 mi
12:20 am50 °FClear.3 mph94%29.95 "Hg4 mi
11:50 pm
Wed, Oct 28
50 °FClear.3 mph94%29.95 "Hg4 mi
11:20 pm52 °FClear.5 mph88%29.92 "Hg5 mi
10:50 pm50 °FClear.5 mph94%29.92 "Hg5 mi
10:20 pm52 °FClear.2 mph94%29.92 "Hg4 mi
9:50 pm54 °FClear.No wind94%29.92 "Hg4 mi
9:20 pm54 °FClear.2 mph94%29.92 "Hg10 mi
8:50 pm55 °FClear.No wind82%29.92 "Hg10 mi
8:20 pm54 °FClear.5 mph88%29.92 "Hg10 mi
7:50 pm55 °FClear.1 mph88%29.92 "Hg10 mi
7:20 pm57 °FClear.5 mph82%29.89 "Hg10 mi
6:50 pm57 °FClear.3 mph82%29.89 "Hg10 mi
6:20 pm57 °FClear.2 mph82%29.89 "Hg10 mi
5:50 pm61 °FClear.2 mph68%29.86 "Hg10 mi
5:20 pm61 °FClear.6 mph72%29.86 "Hg10 mi
4:50 pm64 °FClear.9 mph64%29.86 "Hg10 mi
4:20 pm64 °FSunny.6 mph68%29.86 "Hg10 mi
3:50 pm68 °FSunny.6 mph56%29.86 "Hg10 mi
3:20 pm70 °FSunny.8 mph57%29.83 "Hg10 mi
2:20 pm73 °FSunny.7 mph47%29.83 "Hg10 mi
1:50 pm73 °FPassing clouds.5 mph47%29.83 "HgN/A
1:20 pm73 °FSunny.3 mph53%29.86 "Hg10 mi
Weather by CustomWeather, © 2020

See weather overview